createdAt,value
2022-08-11T00:00:12.850Z,18.68
2022-08-11T00:02:54.915Z,18.70
2022-08-11T00:05:41.878Z,18.72
2022-08-11T00:08:38.975Z,18.73
2022-08-11T00:11:19.853Z,18.70
2022-08-11T00:14:14.895Z,18.69
2022-08-11T00:17:07.853Z,18.65
2022-08-11T00:20:11.733Z,18.70
2022-08-11T00:22:58.818Z,18.67
2022-08-11T00:25:51.835Z,18.60
2022-08-11T00:28:34.960Z,18.57
2022-08-11T00:31:24.775Z,18.59
2022-08-11T00:34:11.495Z,18.59
2022-08-11T00:37:31.899Z,18.58
2022-08-11T00:40:23.429Z,18.52
2022-08-11T00:43:30.817Z,18.52
2022-08-11T00:46:41.842Z,18.50
2022-08-11T00:49:39.814Z,18.53
2022-08-11T00:52:30.679Z,18.54
2022-08-11T00:56:14.791Z,18.50
2022-08-11T00:59:35.263Z,18.42
2022-08-11T01:02:35.750Z,18.45
2022-08-11T01:06:00.877Z,18.43
2022-08-11T01:09:01.922Z,18.43
2022-08-11T01:12:08.760Z,18.56
2022-08-11T01:15:07.753Z,18.50
2022-08-11T01:18:16.785Z,18.44
2022-08-11T01:21:02.907Z,18.40
2022-08-11T01:23:49.775Z,18.34
2022-08-11T01:26:57.043Z,18.41
2022-08-11T01:30:02.773Z,18.34
2022-08-11T01:33:06.891Z,18.35
2022-08-11T01:36:24.797Z,18.31
2022-08-11T01:39:18.308Z,18.35
2022-08-11T01:42:50.783Z,18.38
2022-08-11T01:45:49.756Z,18.39
2022-08-11T01:48:41.039Z,18.41
2022-08-11T01:51:40.840Z,18.42
2022-08-11T01:54:42.356Z,18.49
2022-08-11T01:57:34.726Z,18.48
2022-08-11T02:00:24.229Z,18.45
2022-08-11T02:03:22.715Z,18.50
2022-08-11T02:06:56.735Z,18.43
2022-08-11T02:10:22.809Z,18.57
2022-08-11T02:13:37.210Z,18.57
2022-08-11T02:16:43.850Z,18.58
2022-08-11T02:19:42.718Z,18.50
2022-08-11T02:23:40.974Z,18.50
2022-08-11T02:26:26.797Z,18.60
2022-08-11T02:29:31.714Z,18.59
2022-08-11T02:32:44.675Z,18.55
2022-08-11T02:36:04.711Z,18.43
2022-08-11T02:39:02.692Z,18.48
2022-08-11T02:42:32.458Z,18.51
2022-08-11T02:45:33.825Z,18.44
2022-08-11T02:49:00.654Z,18.46
2022-08-11T02:52:00.694Z,18.51
2022-08-11T03:12:57.402Z,18.12
2022-08-11T03:16:43.451Z,18.30
2022-08-11T03:20:08.402Z,18.44
2022-08-11T03:22:59.434Z,18.51
2022-08-11T03:26:10.393Z,18.63
2022-08-11T03:29:24.932Z,18.62
2022-08-11T03:32:26.356Z,18.66
2022-08-11T03:35:10.040Z,18.79
2022-08-11T03:38:22.400Z,18.82
2022-08-11T03:42:03.223Z,18.80
2022-08-11T03:44:50.499Z,18.73
2022-08-11T03:48:16.381Z,18.82
2022-08-11T03:51:21.482Z,18.85
2022-08-11T03:54:17.401Z,18.89
2022-08-11T03:57:19.521Z,18.77
2022-08-11T04:00:26.379Z,18.91
2022-08-11T04:03:48.384Z,19.15
2022-08-11T04:06:44.469Z,19.29
2022-08-11T04:10:01.341Z,19.60
2022-08-11T04:13:06.486Z,19.75
2022-08-11T04:16:11.954Z,19.70
2022-08-11T04:19:23.356Z,20.07
2022-08-11T04:22:29.469Z,20.48
2022-08-11T04:26:01.400Z,20.62
2022-08-11T04:29:23.318Z,20.69
2022-08-11T04:32:28.524Z,21.02
2022-08-11T04:35:50.702Z,20.70
2022-08-11T04:38:58.358Z,20.79
2022-08-11T04:42:31.377Z,20.34
2022-08-11T04:45:45.278Z,20.23
2022-08-11T04:49:33.261Z,20.20
2022-08-11T04:52:54.995Z,19.92
2022-08-11T04:56:11.266Z,19.66
2022-08-11T04:59:34.799Z,19.71
2022-08-11T05:02:36.340Z,19.82
2022-08-11T05:06:07.288Z,20.05
2022-08-11T05:09:17.414Z,20.35
2022-08-11T05:12:26.286Z,20.54
2022-08-11T05:15:32.282Z,20.94
2022-08-11T05:18:51.339Z,22.00
2022-08-11T05:21:57.448Z,22.71
2022-08-11T05:25:02.866Z,22.66
2022-08-11T05:28:36.271Z,22.99
2022-08-11T05:31:38.246Z,24.32
2022-08-11T05:34:51.234Z,23.96
2022-08-11T05:37:34.523Z,24.11
2022-08-11T05:40:51.214Z,24.56
2022-08-11T05:44:21.204Z,25.54
2022-08-11T05:47:27.261Z,24.82
2022-08-11T05:50:38.282Z,24.63
2022-08-11T05:53:47.254Z,25.57
2022-08-11T05:56:35.504Z,24.60
2022-08-11T05:59:21.289Z,24.07
2022-08-11T06:02:08.735Z,23.79
2022-08-11T06:04:56.269Z,23.55
2022-08-11T06:07:48.912Z,23.61
2022-08-11T06:10:47.239Z,24.01
2022-08-11T06:13:28.419Z,23.92
2022-08-11T06:16:16.234Z,23.97
2022-08-11T06:18:57.754Z,24.11
2022-08-11T06:21:48.212Z,24.44
2022-08-11T06:24:36.275Z,24.56
2022-08-11T06:27:23.146Z,24.92
2022-08-11T06:30:13.702Z,24.92
2022-08-11T06:33:05.160Z,25.35
2022-08-11T06:36:03.345Z,25.40
2022-08-11T06:39:05.188Z,25.43
2022-08-11T06:41:59.194Z,25.80
2022-08-11T06:44:54.323Z,25.80
2022-08-11T06:47:42.173Z,25.72
2022-08-11T06:50:46.071Z,26.35
2022-08-11T06:53:41.151Z,26.26
2022-08-11T06:57:06.664Z,25.91
2022-08-11T07:00:13.059Z,26.99
2022-08-11T07:03:08.185Z,27.00
2022-08-11T07:06:01.027Z,27.30
2022-08-11T07:09:44.206Z,27.02
2022-08-11T07:13:52.215Z,27.22
2022-08-11T07:17:28.961Z,27.50
2022-08-11T07:22:00.485Z,27.42
2022-08-11T07:25:09.113Z,27.35
2022-08-11T07:28:17.151Z,27.71
2022-08-11T07:31:11.131Z,28.02
2022-08-11T07:34:19.180Z,28.52
2022-08-11T07:37:10.212Z,28.24
2022-08-11T07:39:52.201Z,28.53
2022-08-11T07:42:36.938Z,28.31
2022-08-11T07:45:43.110Z,28.48
2022-08-11T07:48:42.039Z,28.69
2022-08-11T07:51:52.143Z,28.56
2022-08-11T07:54:39.119Z,29.06
2022-08-11T07:58:14.536Z,28.81
2022-08-11T08:01:22.475Z,28.51
2022-08-11T08:04:34.103Z,29.22
2022-08-11T08:07:39.757Z,28.88
2022-08-11T08:10:45.095Z,28.64
2022-08-11T08:13:57.091Z,28.88
2022-08-11T08:17:03.089Z,29.46
2022-08-11T08:19:44.711Z,29.86
2022-08-11T08:22:48.326Z,29.63
2022-08-11T08:25:29.213Z,29.53
2022-08-11T08:28:25.371Z,29.34
2022-08-11T08:31:14.060Z,30.60
2022-08-11T08:34:02.070Z,30.25
2022-08-11T08:36:50.093Z,29.89
2022-08-11T08:39:40.152Z,31.38
2022-08-11T08:42:33.116Z,35.33
2022-08-11T08:45:25.044Z,36.79
2022-08-11T08:48:25.084Z,37.15
2022-08-11T08:52:01.382Z,37.52
2022-08-11T08:54:47.058Z,36.95
2022-08-11T08:57:39.946Z,35.96
2022-08-11T09:00:23.671Z,34.68
2022-08-11T09:03:38.971Z,35.60
2022-08-11T09:06:11.131Z,35.53
2022-08-11T09:09:01.079Z,35.88
2022-08-11T09:12:03.028Z,37.93
2022-08-11T09:15:07.017Z,38.30
2022-08-11T09:17:56.304Z,38.46
2022-08-11T09:20:44.991Z,38.27
2022-08-11T09:24:07.754Z,38.50
2022-08-11T09:27:11.024Z,40.36
2022-08-11T09:29:51.122Z,41.14
2022-08-11T09:32:40.023Z,38.95
2022-08-11T09:35:28.014Z,39.32
2022-08-11T09:38:36.965Z,38.69
2022-08-11T09:41:19.003Z,39.28
2022-08-11T09:44:33.969Z,41.09
2022-08-11T09:47:22.027Z,39.32
2022-08-11T09:50:10.209Z,41.45
2022-08-11T09:53:16.797Z,38.67
2022-08-11T09:55:53.481Z,39.31
2022-08-11T09:58:43.027Z,38.19
2022-08-11T10:01:36.023Z,38.89
2022-08-11T10:04:48.665Z,38.96
2022-08-11T10:07:34.974Z,39.04
2022-08-11T10:10:23.961Z,38.19
2022-08-11T10:14:06.096Z,39.54
2022-08-11T10:16:35.104Z,39.56
2022-08-11T10:19:16.991Z,35.44
2022-08-11T10:22:16.262Z,33.82
2022-08-11T10:25:21.977Z,33.70
2022-08-11T10:28:18.712Z,33.08
2022-08-11T10:31:43.831Z,32.84
2022-08-11T10:34:35.628Z,33.20
2022-08-11T10:37:25.029Z,33.37
2022-08-11T10:40:25.572Z,33.25
2022-08-11T10:43:57.206Z,33.14
2022-08-11T10:46:42.947Z,33.08
2022-08-11T10:49:24.117Z,32.83
2022-08-11T10:52:29.994Z,33.12
2022-08-11T10:55:28.599Z,32.30
2022-08-11T10:58:35.940Z,32.68
2022-08-11T11:01:24.022Z,32.89
2022-08-11T11:04:18.972Z,32.65
2022-08-11T11:07:21.940Z,32.01
2022-08-11T11:10:06.373Z,33.05
2022-08-11T11:13:16.910Z,33.18
2022-08-11T11:16:15.899Z,33.05
2022-08-11T11:19:03.925Z,33.28
2022-08-11T11:21:44.463Z,33.39
2022-08-11T11:25:05.879Z,33.31
2022-08-11T11:28:07.903Z,33.04
2022-08-11T11:31:05.017Z,32.75
2022-08-11T11:34:12.699Z,32.87
2022-08-11T11:37:08.911Z,32.72
2022-08-11T11:39:50.347Z,31.97
2022-08-11T11:42:38.991Z,30.44
2022-08-11T11:45:22.688Z,29.94
2022-08-11T11:48:12.903Z,29.77
2022-08-11T11:50:59.983Z,29.79
2022-08-11T11:53:41.902Z,29.91
2022-08-11T11:56:32.009Z,29.55
2022-08-11T11:59:32.885Z,29.29
2022-08-11T12:02:16.198Z,29.48
2022-08-11T12:05:02.866Z,29.46
2022-08-11T12:08:10.334Z,29.65
2022-08-11T12:11:22.895Z,29.52
2022-08-11T12:14:19.847Z,29.62
2022-08-11T12:17:07.894Z,29.67
2022-08-11T12:19:54.901Z,29.59
2022-08-11T12:22:55.829Z,29.54
2022-08-11T12:26:39.848Z,29.66
2022-08-11T12:29:29.016Z,29.48
2022-08-11T12:32:13.844Z,29.32
2022-08-11T12:34:57.002Z,29.43
2022-08-11T12:37:49.181Z,29.56
2022-08-11T12:41:12.038Z,29.82
2022-08-11T12:44:19.361Z,30.09
2022-08-11T12:47:02.253Z,30.12
2022-08-11T12:50:22.581Z,29.92
2022-08-11T12:53:14.799Z,29.71
2022-08-11T12:56:14.816Z,29.40
2022-08-11T12:59:21.840Z,29.32
2022-08-11T13:02:20.764Z,29.26
2022-08-11T13:05:17.816Z,29.24
2022-08-11T13:07:59.244Z,29.42
2022-08-11T13:10:58.823Z,29.18
2022-08-11T13:13:55.458Z,29.11
2022-08-11T13:17:02.806Z,29.23
2022-08-11T13:19:48.870Z,29.27
2022-08-11T13:22:37.964Z,29.39
2022-08-11T13:25:27.796Z,29.37
2022-08-11T13:28:07.919Z,29.25
2022-08-11T13:31:15.806Z,29.38
2022-08-11T13:36:58.888Z,29.49
2022-08-11T13:39:41.008Z,29.40
2022-08-11T13:42:28.800Z,29.44
2022-08-11T13:45:08.898Z,29.30
2022-08-11T13:47:56.794Z,29.25
2022-08-11T13:50:58.563Z,29.20
2022-08-11T13:53:45.754Z,29.08
2022-08-11T13:56:29.843Z,29.10
2022-08-11T13:59:16.815Z,29.04
2022-08-11T14:02:22.272Z,28.89
2022-08-11T14:05:21.745Z,28.78
2022-08-11T14:08:38.076Z,28.95
2022-08-11T14:12:21.658Z,29.18
2022-08-11T14:15:08.801Z,29.03
2022-08-11T14:17:57.079Z,28.85
2022-08-11T14:21:07.774Z,28.79
2022-08-11T14:23:57.741Z,28.87
2022-08-11T14:26:48.711Z,28.83
2022-08-11T14:29:34.413Z,28.84
2022-08-11T14:32:29.807Z,28.85
2022-08-11T14:35:17.740Z,28.85
2022-08-11T14:37:57.820Z,29.00
2022-08-11T14:41:03.744Z,28.93
2022-08-11T14:44:12.747Z,29.12
2022-08-11T14:47:24.099Z,28.95
2022-08-11T14:50:10.879Z,28.60
2022-08-11T14:53:11.739Z,28.65
2022-08-11T14:56:17.539Z,28.60
2022-08-11T15:15:21.169Z,28.63
2022-08-11T15:18:04.357Z,28.85
2022-08-11T15:21:09.174Z,28.87
2022-08-11T15:24:21.904Z,28.81
2022-08-11T15:27:28.135Z,28.79
2022-08-11T15:30:34.378Z,28.56
2022-08-11T15:33:43.233Z,28.49
2022-08-11T15:36:43.778Z,28.41
2022-08-11T15:39:37.169Z,28.41
2022-08-11T15:42:36.466Z,28.16
2022-08-11T15:45:42.170Z,28.05
2022-08-11T15:48:39.317Z,27.94
2022-08-11T15:51:47.128Z,27.90
2022-08-11T15:54:38.074Z,27.96
2022-08-11T15:57:59.155Z,27.98
2022-08-11T16:01:04.212Z,28.08
2022-08-11T16:04:18.384Z,27.99
2022-08-11T16:07:24.206Z,28.09
2022-08-11T16:10:22.118Z,27.94
2022-08-11T16:13:20.138Z,28.19
2022-08-11T16:16:15.298Z,28.32
2022-08-11T16:19:08.104Z,28.28
2022-08-11T16:21:52.900Z,28.16
2022-08-11T16:27:06.892Z,28.17
2022-08-11T16:27:49.217Z,28.21
2022-08-11T16:30:38.065Z,28.07
2022-08-11T16:33:49.682Z,28.10
2022-08-11T16:36:58.097Z,28.03
2022-08-11T16:39:40.030Z,27.87
2022-08-11T16:43:04.474Z,27.81
2022-08-11T16:46:13.977Z,27.68
2022-08-11T16:48:57.071Z,27.53
2022-08-11T16:51:37.908Z,27.44
2022-08-11T16:54:27.930Z,27.38
2022-08-11T16:57:45.738Z,27.29
2022-08-11T17:00:32.132Z,27.11
2022-08-11T17:03:46.828Z,27.11
2022-08-11T17:06:53.049Z,27.00
2022-08-11T17:09:54.750Z,26.87
2022-08-11T17:13:03.012Z,26.73
2022-08-11T17:16:15.075Z,26.63
2022-08-11T17:19:15.065Z,26.48
2022-08-11T17:22:15.645Z,26.40
2022-08-11T17:25:05.013Z,26.33
2022-08-11T17:27:55.021Z,26.26
2022-08-11T17:31:01.055Z,26.20
2022-08-11T17:33:59.760Z,26.12
2022-08-11T17:36:51.010Z,26.04
2022-08-11T17:39:32.407Z,26.04
2022-08-11T17:42:38.994Z,25.99
2022-08-11T17:45:47.004Z,25.90
2022-08-11T17:48:27.164Z,25.80
2022-08-11T17:51:19.010Z,25.66
2022-08-11T17:54:24.515Z,25.61
2022-08-11T17:57:32.005Z,25.56
2022-08-11T18:00:13.140Z,25.51
2022-08-11T18:03:21.006Z,25.45
2022-08-11T18:06:03.192Z,25.38
2022-08-11T18:09:09.989Z,25.34
2022-08-11T18:12:12.985Z,25.23
2022-08-11T18:15:20.985Z,25.23
2022-08-11T18:18:19.854Z,25.19
2022-08-11T18:21:25.986Z,25.15
2022-08-11T18:24:35.971Z,25.09
2022-08-11T18:27:37.390Z,25.01
2022-08-11T18:30:43.955Z,24.95
2022-08-11T18:34:07.122Z,24.83
2022-08-11T18:37:29.432Z,24.82
2022-08-11T18:40:48.958Z,24.74
2022-08-11T18:43:55.942Z,24.70
2022-08-11T18:47:01.889Z,24.65
2022-08-11T18:50:21.089Z,24.61
2022-08-11T18:53:35.231Z,24.58
2022-08-11T18:56:39.926Z,24.56
2022-08-11T18:59:46.064Z,24.52
2022-08-11T19:02:53.142Z,24.46
2022-08-11T19:06:35.673Z,24.47
2022-08-11T19:09:25.584Z,24.46
2022-08-11T19:12:35.045Z,24.48
2022-08-11T19:15:48.933Z,24.52
2022-08-11T19:18:56.927Z,24.55
2022-08-11T19:22:02.900Z,24.48
2022-08-11T19:25:12.102Z,24.45
2022-08-11T19:28:19.903Z,24.41
2022-08-11T19:31:25.532Z,24.38
2022-08-11T19:34:24.902Z,24.31
2022-08-11T19:37:32.945Z,24.25
2022-08-11T19:40:34.702Z,24.25
2022-08-11T19:43:42.904Z,24.14
2022-08-11T19:46:45.613Z,24.12
2022-08-11T19:49:52.926Z,24.10
2022-08-11T19:52:52.813Z,24.04
2022-08-11T19:55:58.856Z,24.00
2022-08-11T19:59:06.879Z,24.00
2022-08-11T20:02:13.725Z,23.98
2022-08-11T20:05:19.871Z,23.97
2022-08-11T20:08:25.803Z,23.97
2022-08-11T20:11:25.888Z,23.96
2022-08-11T20:14:40.853Z,23.97
2022-08-11T20:17:47.942Z,23.95
2022-08-11T20:20:49.785Z,23.84
2022-08-11T20:23:55.870Z,23.82
2022-08-11T20:27:02.861Z,23.81
2022-08-11T20:30:02.710Z,23.76
2022-08-11T20:33:09.866Z,23.72
2022-08-11T20:36:09.530Z,23.71
2022-08-11T20:39:15.900Z,23.66
2022-08-11T20:42:16.657Z,23.63
2022-08-11T20:45:24.943Z,23.61
2022-08-11T20:48:30.871Z,23.59
2022-08-11T20:51:29.519Z,23.58
2022-08-11T20:54:44.845Z,23.54
2022-08-11T20:57:58.948Z,23.54
2022-08-11T21:01:01.023Z,23.52
2022-08-11T21:04:06.834Z,23.53
2022-08-11T21:07:15.233Z,23.49
2022-08-11T21:10:26.827Z,23.47
2022-08-11T21:13:42.006Z,23.44
2022-08-11T21:17:00.808Z,23.39
2022-08-11T21:20:35.786Z,23.32
2022-08-11T21:23:41.677Z,23.29
2022-08-11T21:26:42.798Z,23.19
2022-08-11T21:29:47.973Z,23.15
2022-08-11T21:32:55.822Z,23.15
2022-08-11T21:35:56.412Z,23.11
2022-08-11T21:39:02.786Z,23.09
2022-08-11T21:42:02.357Z,23.05
2022-08-11T21:45:07.789Z,23.02
2022-08-11T21:51:11.836Z,22.87
2022-08-11T21:54:18.408Z,22.84
2022-08-11T21:57:17.781Z,22.78
2022-08-11T22:00:25.764Z,22.78
2022-08-11T22:03:24.677Z,22.74
2022-08-11T22:06:30.726Z,22.72
2022-08-11T22:09:29.519Z,22.71
2022-08-11T22:12:37.061Z,22.71
2022-08-11T22:15:50.753Z,22.65
2022-08-11T22:18:52.431Z,22.63
2022-08-11T22:22:04.221Z,22.57
2022-08-11T22:25:15.284Z,22.58
2022-08-11T22:28:21.712Z,22.48
2022-08-11T22:31:27.697Z,22.46
2022-08-11T22:34:27.426Z,22.46
2022-08-11T22:37:32.715Z,22.43
2022-08-11T22:40:39.700Z,22.41
2022-08-11T22:43:38.806Z,22.41
2022-08-11T22:46:43.723Z,22.40
2022-08-11T22:49:58.579Z,22.31
2022-08-11T22:52:59.547Z,22.29
2022-08-11T22:56:04.704Z,22.25
2022-08-11T22:59:11.717Z,22.20
2022-08-11T23:02:20.686Z,22.18
2022-08-11T23:05:26.694Z,22.17
2022-08-11T23:08:26.404Z,22.17
2022-08-11T23:12:02.520Z,22.15
2022-08-11T23:15:01.594Z,22.06
2022-08-11T23:18:00.688Z,22.04
2022-08-11T23:21:07.667Z,22.02
2022-08-11T23:24:12.633Z,21.98
2022-08-11T23:27:19.656Z,21.94
2022-08-11T23:30:22.333Z,21.94
2022-08-11T23:33:28.646Z,21.95
2022-08-11T23:36:36.079Z,21.91
2022-08-11T23:39:54.680Z,21.92
2022-08-11T23:42:53.345Z,21.89
2022-08-11T23:45:57.652Z,21.89
2022-08-11T23:48:57.433Z,21.87
2022-08-11T23:52:06.615Z,21.84
2022-08-11T23:55:11.642Z,21.82
2022-08-11T23:58:18.636Z,21.82
